Portada
METAR-TAF:

METAR-TAF

Aeroports :

Page Field

Fort Myers, Florida, Estats Units d'Amèrica

latitud: 26-35-03N, longitud: 081-51-45W, altitud: 5 m

Observació

L'informe es va fer fa 21 minuts, a les 15:53 UTC
Vent 4 kt del Nord/Nord-Est
Temperatura 22°C
Humitat 43%
Pressió 1023 hPa
Visibilitat: 16.1 km
Cel clar

METAR: KFMY 251553Z 02004KT 10SM CLR 22/09 A3020 RMK AO2 SLP230 T02220094

Hora: 11:14 (16:14 UTC)

Pronòstic

L'informe es va fer fa 4 hores i 54 minuts, a les 11:20 UTC
Pronòstic vàlid del 25 a les 12 UTC al 26 a les 12 UTC
Vent 3 kt amb direcció variable
Visibilitat: 10 km
Cel clar
A partir de les 25 a les 1400 UTC
Vent 7 kt del Oest/Nord-Oest
Visibilitat: 10 km
Cel clar
A partir de les 26 a les 0800 UTC
Vent 3 kt del Nord/Nord-Est
Visibilitat: 10 km
Cel clar

TAF: KFMY 251120Z 2512/2612 VRB03KT P6SM SKC FM251400 30007KT P6SM SKC FM260800 03003KT P6SM SKC

Observacions i pronòstics meteorològics de més de 4000 aeroports (METAR i TAF).

Les estacions disponibles són els punts grocs i vermells al mapa.

Posi el ratolí al punt desitjat per veure el nom de l'estació.

Feu clic per veure les observacions i els pronòstics meteorològics.

Per canviar el mapa: feu clic els botons verds amb una creu de color negre per apropar; al botó verd amb un guió per allunyar la imatge; o en les fletxes verdes per a mapes adjacents.


METAR-TAF: